createdAt,value
2022-08-26T00:01:54.440Z,66.97
2022-08-26T00:04:26.506Z,67.33
2022-08-26T00:06:55.665Z,67.48
2022-08-26T00:09:23.106Z,67.86
2022-08-26T00:11:52.030Z,68.70
2022-08-26T00:14:18.486Z,68.65
2022-08-26T00:16:49.869Z,68.62
2022-08-26T00:19:25.687Z,69.40
2022-08-26T00:21:53.476Z,69.06
2022-08-26T00:24:22.332Z,69.65
2022-08-26T00:26:50.587Z,69.44
2022-08-26T00:29:21.230Z,69.31
2022-08-26T00:31:54.716Z,69.89
2022-08-26T00:34:21.144Z,70.37
2022-08-26T00:36:52.844Z,68.17
2022-08-26T00:39:21.957Z,69.63
2022-08-26T00:41:50.915Z,69.38
2022-08-26T00:44:17.874Z,69.60
2022-08-26T00:46:53.583Z,69.02
2022-08-26T00:49:27.204Z,68.67
2022-08-26T00:52:03.275Z,68.34
2022-08-26T00:54:38.553Z,69.34
2022-08-26T00:57:16.375Z,69.49
2022-08-26T00:59:49.119Z,70.37
2022-08-26T01:02:20.998Z,69.17
2022-08-26T01:04:54.226Z,69.88
2022-08-26T01:07:22.360Z,69.52
2022-08-26T01:09:52.083Z,70.71
2022-08-26T01:12:21.964Z,69.33
2022-08-26T01:14:52.228Z,70.90
2022-08-26T01:17:28.743Z,70.61
2022-08-26T01:20:10.044Z,71.62
2022-08-26T01:23:08.937Z,71.60
2022-08-26T01:25:43.106Z,71.69
2022-08-26T01:28:22.995Z,71.17
2022-08-26T01:30:53.027Z,71.78
2022-08-26T01:33:26.591Z,71.15
2022-08-26T01:35:53.465Z,71.13
2022-08-26T01:38:20.285Z,70.81
2022-08-26T01:40:51.256Z,69.36
2022-08-26T01:43:25.881Z,71.08
2022-08-26T01:45:55.936Z,71.21
2022-08-26T01:48:28.195Z,70.92
2022-08-26T01:50:58.503Z,71.79
2022-08-26T01:53:26.866Z,71.58
2022-08-26T01:56:03.499Z,71.90
2022-08-26T01:58:38.971Z,71.73
2022-08-26T02:01:07.381Z,72.77
2022-08-26T02:03:50.834Z,73.73
2022-08-26T02:06:19.676Z,73.28
2022-08-26T02:08:56.375Z,74.33
2022-08-26T02:11:25.522Z,73.92
2022-08-26T02:13:58.431Z,75.12
2022-08-26T02:16:27.313Z,76.35
2022-08-26T02:18:55.713Z,76.94
2022-08-26T02:21:25.069Z,76.72
2022-08-26T02:23:58.802Z,76.34
2022-08-26T02:26:30.893Z,76.61
2022-08-26T02:29:15.797Z,77.25
2022-08-26T02:31:42.262Z,76.35
2022-08-26T02:34:21.808Z,77.21
2022-08-26T02:36:49.318Z,76.03
2022-08-26T02:39:22.355Z,76.52
2022-08-26T02:41:51.364Z,75.95
2022-08-26T02:44:17.962Z,77.08
2022-08-26T02:46:47.374Z,77.19
2022-08-26T02:49:20.397Z,77.34
2022-08-26T02:51:49.770Z,74.78
2022-08-26T02:54:23.689Z,74.49
2022-08-26T02:56:51.279Z,75.72
2022-08-26T02:59:18.242Z,75.58
2022-08-26T03:01:49.012Z,75.95
2022-08-26T03:04:28.817Z,76.30
2022-08-26T03:06:59.878Z,76.22
2022-08-26T03:09:33.821Z,75.24
2022-08-26T03:12:00.934Z,74.91
2022-08-26T03:14:33.849Z,75.58
2022-08-26T03:17:00.347Z,74.57
2022-08-26T03:19:39.859Z,74.01
2022-08-26T03:22:14.755Z,73.92
2022-08-26T03:24:48.841Z,74.65
2022-08-26T03:27:15.810Z,74.74
2022-08-26T03:30:08.855Z,76.09
2022-08-26T03:32:38.377Z,76.41
2022-08-26T03:35:14.843Z,76.40
2022-08-26T03:37:41.377Z,76.89
2022-08-26T03:40:11.567Z,77.71
2022-08-26T03:42:40.356Z,77.90
2022-08-26T03:45:12.421Z,78.19
2022-08-26T03:47:40.507Z,78.39
2022-08-26T03:50:14.728Z,79.47
2022-08-26T03:52:43.998Z,79.49
2022-08-26T03:55:11.091Z,80.03
2022-08-26T03:57:40.181Z,80.41
2022-08-26T04:00:14.474Z,78.98
2022-08-26T04:02:46.743Z,80.27
2022-08-26T04:05:17.808Z,80.98
2022-08-26T04:07:48.612Z,79.82
2022-08-26T04:10:22.029Z,79.74
2022-08-26T04:12:55.346Z,79.77
2022-08-26T04:15:25.250Z,79.47
2022-08-26T04:17:54.379Z,79.98
2022-08-26T04:20:30.891Z,79.26
2022-08-26T04:23:00.197Z,78.90
2022-08-26T04:25:26.648Z,77.59
2022-08-26T04:27:53.085Z,77.68
2022-08-26T04:30:20.127Z,78.27
2022-08-26T04:32:48.715Z,79.37
2022-08-26T04:35:15.103Z,77.88
2022-08-26T04:37:42.979Z,78.81
2022-08-26T04:40:10.480Z,78.62
2022-08-26T04:42:37.045Z,78.00
2022-08-26T04:45:05.764Z,78.46
2022-08-26T04:47:42.957Z,77.19
2022-08-26T04:50:10.918Z,78.58
2022-08-26T04:52:45.920Z,76.21
2022-08-26T04:55:12.598Z,78.12
2022-08-26T04:57:40.487Z,77.50
2022-08-26T05:00:12.847Z,74.54
2022-08-26T05:02:40.886Z,75.69
2022-08-26T05:05:07.718Z,76.30
2022-08-26T05:07:41.922Z,75.84
2022-08-26T05:10:11.373Z,77.28
2022-08-26T05:12:43.041Z,75.79
2022-08-26T05:15:11.139Z,76.85
2022-08-26T05:17:37.995Z,76.06
2022-08-26T05:20:06.905Z,77.59
2022-08-26T05:22:40.987Z,75.88
2022-08-26T05:25:10.439Z,76.34
2022-08-26T05:27:37.619Z,76.52
2022-08-26T05:30:06.647Z,75.95
2022-08-26T05:32:33.162Z,75.42
2022-08-26T05:34:59.654Z,77.34
2022-08-26T05:37:27.141Z,77.74
2022-08-26T05:39:53.608Z,78.08
2022-08-26T05:42:20.047Z,77.99
2022-08-26T05:44:55.773Z,76.03
2022-08-26T05:47:26.189Z,77.67
2022-08-26T05:49:53.046Z,77.99
2022-08-26T05:52:19.984Z,76.91
2022-08-26T05:54:47.673Z,78.27
2022-08-26T05:57:16.610Z,75.56
2022-08-26T05:59:45.091Z,73.50
2022-08-26T06:02:19.028Z,76.57
2022-08-26T06:04:45.946Z,76.15
2022-08-26T06:07:12.496Z,77.69
2022-08-26T06:09:46.981Z,77.57
2022-08-26T06:12:15.790Z,78.18
2022-08-26T06:14:50.976Z,78.72
2022-08-26T06:17:17.370Z,79.20
2022-08-26T06:19:44.262Z,79.04
2022-08-26T06:22:30.670Z,78.76
2022-08-26T06:25:18.010Z,78.46
2022-08-26T06:27:44.518Z,77.34
2022-08-26T06:30:14.528Z,75.50
2022-08-26T06:32:41.707Z,74.57
2022-08-26T06:35:12.095Z,76.33
2022-08-26T06:37:39.072Z,73.77
2022-08-26T06:40:08.769Z,72.65
2022-08-26T06:42:47.005Z,71.26
2022-08-26T06:45:13.821Z,70.70
2022-08-26T06:47:40.326Z,69.61
2022-08-26T06:50:07.084Z,69.68
2022-08-26T06:52:36.265Z,64.10
2022-08-26T06:55:03.757Z,63.77
2022-08-26T06:57:41.133Z,64.56
2022-08-26T07:00:10.449Z,62.52
2022-08-26T07:02:46.872Z,63.21
2022-08-26T07:05:13.735Z,62.85
2022-08-26T07:07:47.006Z,61.13
2022-08-26T07:10:14.815Z,61.64
2022-08-26T07:12:47.995Z,59.87
2022-08-26T07:15:15.041Z,62.87
2022-08-26T07:17:41.491Z,60.51
2022-08-26T07:20:16.038Z,59.64
2022-08-26T07:22:50.187Z,58.12
2022-08-26T07:25:16.782Z,57.81
2022-08-26T07:27:54.100Z,57.11
2022-08-26T07:30:24.859Z,59.40
2022-08-26T07:32:51.275Z,57.59
2022-08-26T07:35:17.951Z,57.81
2022-08-26T07:37:46.730Z,56.51
2022-08-26T07:40:13.333Z,56.38
2022-08-26T07:42:42.720Z,56.77
2022-08-26T07:45:14.091Z,57.54
2022-08-26T07:47:40.556Z,56.81
2022-08-26T07:50:08.094Z,56.05
2022-08-26T07:52:41.064Z,57.44
2022-08-26T07:55:13.372Z,56.90
2022-08-26T07:57:46.044Z,55.48
2022-08-26T08:00:16.571Z,58.08
2022-08-26T08:02:53.061Z,59.51
2022-08-26T08:05:33.272Z,60.33
2022-08-26T08:08:27.304Z,57.14
2022-08-26T08:10:56.036Z,57.83
2022-08-26T08:13:32.104Z,57.83
2022-08-26T08:15:58.586Z,56.37
2022-08-26T08:18:25.026Z,57.21
2022-08-26T08:20:54.686Z,57.02
2022-08-26T08:23:38.698Z,55.65
2022-08-26T08:26:11.042Z,56.10
2022-08-26T08:28:38.463Z,57.36
2022-08-26T08:31:05.971Z,55.54
2022-08-26T08:33:40.091Z,56.03
2022-08-26T08:36:07.642Z,55.41
2022-08-26T08:38:37.073Z,56.15
2022-08-26T08:41:03.596Z,54.78
2022-08-26T08:43:40.279Z,58.10
2022-08-26T08:46:12.249Z,55.49
2022-08-26T08:48:43.660Z,53.32
2022-08-26T08:51:13.884Z,54.71
2022-08-26T08:53:54.650Z,54.90
2022-08-26T08:56:30.304Z,55.60
2022-08-26T08:59:07.360Z,52.99
2022-08-26T09:01:36.459Z,53.15
2022-08-26T09:04:22.868Z,53.83
2022-08-26T09:06:54.522Z,53.70
2022-08-26T09:09:35.116Z,53.42
2022-08-26T09:12:04.965Z,53.04
2022-08-26T09:14:38.121Z,52.67
2022-08-26T09:17:13.268Z,54.20
2022-08-26T09:19:52.111Z,51.61
2022-08-26T09:22:34.090Z,52.54
2022-08-26T09:25:08.123Z,52.73
2022-08-26T09:27:50.477Z,52.51
2022-08-26T09:30:28.016Z,51.38
2022-08-26T09:33:01.474Z,51.63
2022-08-26T09:35:37.026Z,51.75
2022-08-26T09:38:28.141Z,52.62
2022-08-26T09:41:05.154Z,50.28
2022-08-26T09:43:37.465Z,50.22
2022-08-26T09:46:25.227Z,51.01
2022-08-26T09:48:53.073Z,50.86
2022-08-26T09:51:23.258Z,52.58
2022-08-26T09:53:58.681Z,50.95
2022-08-26T09:56:46.175Z,50.24
2022-08-26T09:59:13.276Z,48.82
2022-08-26T10:01:44.818Z,49.37
2022-08-26T10:04:21.114Z,49.51
2022-08-26T10:07:07.163Z,48.84
2022-08-26T10:09:40.580Z,49.77
2022-08-26T10:12:13.279Z,48.14
2022-08-26T10:14:57.180Z,47.66
2022-08-26T10:17:47.532Z,49.72
2022-08-26T10:20:41.157Z,48.91
2022-08-26T10:23:17.958Z,46.44
2022-08-26T10:26:05.081Z,47.06
2022-08-26T10:28:33.100Z,47.63
2022-08-26T10:31:15.978Z,46.49
2022-08-26T10:33:42.484Z,46.66
2022-08-26T10:36:39.303Z,45.52
2022-08-26T10:39:37.847Z,46.36
2022-08-26T10:42:13.736Z,46.22
2022-08-26T10:44:44.260Z,44.03
2022-08-26T10:47:22.289Z,44.69
2022-08-26T10:49:52.309Z,43.84
2022-08-26T10:52:41.253Z,42.87
2022-08-26T10:55:40.521Z,44.83
2022-08-26T10:58:31.656Z,43.76
2022-08-26T11:01:51.020Z,43.76
2022-08-26T11:04:38.988Z,42.82
2022-08-26T11:07:35.255Z,43.54
2022-08-26T11:10:24.474Z,42.31
2022-08-26T11:13:00.405Z,42.21
2022-08-26T11:15:28.051Z,41.35
2022-08-26T11:18:05.657Z,42.40
2022-08-26T11:20:55.264Z,41.40
2022-08-26T11:23:27.130Z,41.77
2022-08-26T11:26:03.275Z,41.27
2022-08-26T11:28:36.521Z,40.68
2022-08-26T11:31:05.391Z,41.64
2022-08-26T11:33:58.187Z,40.67
2022-08-26T11:36:49.015Z,41.18
2022-08-26T11:39:28.668Z,40.99
2022-08-26T11:42:15.997Z,40.22
2022-08-26T11:44:49.378Z,39.85
2022-08-26T11:47:24.614Z,40.47
2022-08-26T11:50:09.912Z,39.83
2022-08-26T11:52:41.378Z,38.73
2022-08-26T11:55:17.053Z,38.22
2022-08-26T11:57:50.597Z,38.05
2022-08-26T12:00:21.180Z,37.59
2022-08-26T12:02:50.080Z,39.24
2022-08-26T12:05:30.836Z,38.96
2022-08-26T12:08:02.777Z,39.99
2022-08-26T12:10:33.936Z,39.32
2022-08-26T12:13:04.228Z,39.21
2022-08-26T12:15:33.299Z,36.62
2022-08-26T12:18:29.324Z,37.72
2022-08-26T12:21:35.288Z,36.61
2022-08-26T12:24:10.272Z,38.19
2022-08-26T12:26:37.105Z,37.40
2022-08-26T12:29:26.950Z,38.93
2022-08-26T12:32:13.217Z,36.89
2022-08-26T12:34:46.023Z,36.40
2022-08-26T12:37:18.895Z,35.88
2022-08-26T12:39:45.649Z,37.14
2022-08-26T12:42:12.087Z,36.12
2022-08-26T12:44:53.676Z,36.89
2022-08-26T12:47:42.878Z,36.72
2022-08-26T12:50:19.238Z,35.58
2022-08-26T12:52:56.267Z,36.49
2022-08-26T12:55:29.704Z,35.72
2022-08-26T12:58:15.956Z,36.48
2022-08-26T13:00:45.949Z,37.03
2022-08-26T13:03:35.109Z,35.18
2022-08-26T13:06:15.818Z,35.78
2022-08-26T13:08:44.081Z,35.43
2022-08-26T13:11:18.587Z,36.24
2022-08-26T13:13:45.773Z,35.46
2022-08-26T13:16:14.588Z,35.08
2022-08-26T13:18:40.994Z,35.71
2022-08-26T13:21:25.369Z,37.64
2022-08-26T13:24:08.297Z,35.77
2022-08-26T13:26:35.654Z,36.23
2022-08-26T13:29:02.719Z,35.31
2022-08-26T13:31:35.432Z,36.91
2022-08-26T13:34:03.598Z,34.04
2022-08-26T13:36:34.843Z,35.06
2022-08-26T13:39:01.415Z,34.11
2022-08-26T13:41:34.345Z,34.68
2022-08-26T13:44:01.663Z,35.42
2022-08-26T13:46:35.427Z,33.84
2022-08-26T13:49:02.878Z,35.42
2022-08-26T13:51:36.408Z,34.62
2022-08-26T13:54:03.236Z,36.04
2022-08-26T13:56:39.373Z,36.46
2022-08-26T13:59:06.583Z,35.89
2022-08-26T14:01:40.449Z,35.47
2022-08-26T14:04:11.719Z,35.65
2022-08-26T14:06:46.330Z,35.84
2022-08-26T14:09:16.788Z,36.16
2022-08-26T14:11:50.905Z,36.81
2022-08-26T14:14:21.484Z,37.20
2022-08-26T14:16:58.774Z,36.69
2022-08-26T14:19:27.710Z,37.03
2022-08-26T14:21:54.168Z,37.74
2022-08-26T14:24:29.590Z,37.24
2022-08-26T14:26:56.092Z,36.47
2022-08-26T14:29:22.603Z,36.57
2022-08-26T14:31:49.028Z,36.49
2022-08-26T14:34:17.978Z,36.65
2022-08-26T14:36:44.355Z,36.33
2022-08-26T14:39:13.088Z,37.46
2022-08-26T14:42:03.398Z,36.82
2022-08-26T14:44:32.667Z,36.70
2022-08-26T14:47:08.418Z,36.69
2022-08-26T14:49:34.981Z,34.41
2022-08-26T14:52:02.014Z,34.75
2022-08-26T14:54:29.472Z,33.94
2022-08-26T14:57:04.047Z,33.90
2022-08-26T14:59:35.580Z,34.03
2022-08-26T15:02:02.881Z,33.19
2022-08-26T15:04:29.857Z,34.32
2022-08-26T15:07:05.418Z,36.51
2022-08-26T15:09:37.448Z,37.94
2022-08-26T15:12:04.884Z,38.73
2022-08-26T15:14:33.055Z,39.04
2022-08-26T15:17:00.427Z,39.90
2022-08-26T15:19:30.116Z,39.69
2022-08-26T15:22:03.907Z,40.77
2022-08-26T15:24:36.905Z,43.30
2022-08-26T15:27:03.533Z,43.37
2022-08-26T15:29:30.005Z,43.44
2022-08-26T15:31:58.501Z,43.12
2022-08-26T15:34:25.039Z,43.06
2022-08-26T15:36:51.423Z,44.05
2022-08-26T15:39:19.194Z,44.61
2022-08-26T15:41:46.427Z,47.70
2022-08-26T15:44:14.193Z,57.57
2022-08-26T15:46:40.956Z,61.87
2022-08-26T15:49:07.732Z,65.62
2022-08-26T15:51:47.497Z,67.33
2022-08-26T15:54:16.642Z,70.35
2022-08-26T15:56:50.481Z,69.93
2022-08-26T15:59:20.961Z,73.67
2022-08-26T16:01:54.549Z,73.47
2022-08-26T16:04:21.152Z,69.83
2022-08-26T16:06:56.468Z,79.58
2022-08-26T16:09:26.833Z,87.13
2022-08-26T16:12:01.487Z,86.97
2022-08-26T16:14:27.969Z,84.08
2022-08-26T16:17:01.489Z,86.46
2022-08-26T16:19:27.945Z,88.30
2022-08-26T16:22:07.507Z,91.96
2022-08-26T16:24:34.517Z,90.26
2022-08-26T16:27:12.539Z,83.15
2022-08-26T16:29:39.698Z,76.62
2022-08-26T16:32:15.483Z,80.18
2022-08-26T16:34:56.402Z,78.53
2022-08-26T16:37:29.505Z,81.03
2022-08-26T16:39:55.969Z,82.39
2022-08-26T16:42:22.419Z,80.68
2022-08-26T16:44:48.867Z,75.24
2022-08-26T16:47:16.245Z,79.26
2022-08-26T16:49:42.973Z,78.14
2022-08-26T16:52:10.986Z,77.37
2022-08-26T16:54:41.378Z,76.59
2022-08-26T16:57:09.752Z,81.26
2022-08-26T16:59:36.250Z,82.43
2022-08-26T17:02:02.963Z,84.17
2022-08-26T17:04:29.478Z,83.96
2022-08-26T17:06:56.588Z,84.47
2022-08-26T17:09:23.006Z,83.77
2022-08-26T17:11:50.651Z,83.95
2022-08-26T17:14:17.587Z,83.75
2022-08-26T17:16:44.616Z,84.50
2022-08-26T17:19:11.639Z,83.36
2022-08-26T17:21:46.576Z,82.86
2022-08-26T17:24:13.600Z,80.68
2022-08-26T17:26:52.621Z,84.41
2022-08-26T17:29:22.161Z,82.24
2022-08-26T17:31:55.569Z,81.16
2022-08-26T17:34:22.611Z,73.24
2022-08-26T17:36:52.004Z,72.88
2022-08-26T17:39:18.442Z,70.94
2022-08-26T17:41:44.969Z,71.42
2022-08-26T17:44:11.446Z,70.71
2022-08-26T17:46:38.540Z,68.08
2022-08-26T17:49:05.642Z,68.30
2022-08-26T17:51:39.590Z,66.18
2022-08-26T17:54:09.152Z,66.90
2022-08-26T17:56:44.579Z,66.39
2022-08-26T17:59:11.743Z,66.70
2022-08-26T18:01:46.644Z,66.11
2022-08-26T18:04:14.692Z,65.52
2022-08-26T18:06:49.616Z,65.42
2022-08-26T18:09:18.468Z,67.28
2022-08-26T18:11:51.599Z,65.48
2022-08-26T18:14:17.989Z,65.85
2022-08-26T18:16:44.366Z,65.51
2022-08-26T18:19:10.818Z,65.51
2022-08-26T18:21:57.596Z,65.00
2022-08-26T18:24:24.480Z,66.54
2022-08-26T18:26:51.029Z,64.42
2022-08-26T18:29:19.801Z,64.43
2022-08-26T18:31:53.616Z,63.77
2022-08-26T18:34:20.918Z,63.61
2022-08-26T18:36:56.680Z,63.87
2022-08-26T18:39:25.420Z,64.10
2022-08-26T18:41:59.590Z,64.62
2022-08-26T18:44:26.061Z,63.67
2022-08-26T18:47:01.614Z,64.42
2022-08-26T18:49:32.850Z,63.80
2022-08-26T18:52:00.453Z,63.59
2022-08-26T18:54:26.940Z,64.42
2022-08-26T18:56:56.407Z,63.77
2022-08-26T18:59:28.804Z,63.47
2022-08-26T19:01:57.655Z,64.28
2022-08-26T19:04:26.611Z,64.34
2022-08-26T19:06:53.626Z,63.01
2022-08-26T19:09:22.352Z,63.30
2022-08-26T19:11:50.020Z,63.75
2022-08-26T19:14:16.817Z,63.68
2022-08-26T19:16:46.201Z,64.38
2022-08-26T19:19:14.745Z,65.02
2022-08-26T19:22:03.645Z,63.78
2022-08-26T19:24:30.065Z,64.82
2022-08-26T19:26:59.376Z,64.18
2022-08-26T19:29:34.436Z,63.59
2022-08-26T19:32:01.972Z,63.58
2022-08-26T19:34:28.572Z,63.56
2022-08-26T19:37:03.659Z,63.03
2022-08-26T19:39:30.189Z,64.84
2022-08-26T19:42:06.760Z,64.86
2022-08-26T19:44:51.784Z,64.63
2022-08-26T19:47:18.381Z,64.84
2022-08-26T19:49:45.651Z,65.71
2022-08-26T19:52:12.622Z,64.66
2022-08-26T19:54:39.826Z,65.28
2022-08-26T19:57:06.453Z,66.30
2022-08-26T19:59:36.199Z,65.45
2022-08-26T20:02:11.754Z,64.93
2022-08-26T20:04:41.802Z,70.78
2022-08-26T20:07:18.948Z,76.33
2022-08-26T20:09:47.319Z,79.96
2022-08-26T20:12:21.679Z,82.51
2022-08-26T20:14:48.147Z,81.30
2022-08-26T20:17:16.010Z,81.87
2022-08-26T20:20:01.067Z,80.40
2022-08-26T20:22:28.097Z,81.55
2022-08-26T20:24:54.628Z,79.48
2022-08-26T20:27:34.372Z,77.77
2022-08-26T20:30:09.261Z,78.21
2022-08-26T20:32:36.430Z,79.55
2022-08-26T20:35:04.091Z,79.96
2022-08-26T20:37:30.476Z,80.83
2022-08-26T20:39:57.338Z,80.09
2022-08-26T20:42:26.931Z,81.12
2022-08-26T20:44:54.520Z,82.70
2022-08-26T20:47:30.758Z,78.64
2022-08-26T20:49:57.309Z,84.78
2022-08-26T20:52:30.718Z,81.28
2022-08-26T20:55:04.252Z,77.18
2022-08-26T20:57:36.711Z,75.16
2022-08-26T21:00:05.589Z,74.30
2022-08-26T21:02:38.744Z,73.38
2022-08-26T21:05:06.066Z,72.79
2022-08-26T21:07:39.747Z,71.64
2022-08-26T21:10:06.587Z,72.01
2022-08-26T21:12:33.079Z,72.81
2022-08-26T21:14:59.571Z,71.50
2022-08-26T21:17:25.976Z,74.83
2022-08-26T21:19:55.372Z,75.49
2022-08-26T21:22:30.757Z,72.60
2022-08-26T21:24:57.190Z,71.89
2022-08-26T21:27:26.316Z,70.96
2022-08-26T21:29:56.709Z,70.66
2022-08-26T21:32:23.349Z,70.66
2022-08-26T21:34:54.815Z,70.59
2022-08-26T21:37:23.661Z,71.27
2022-08-26T21:39:57.069Z,70.00
2022-08-26T21:42:27.827Z,70.42
2022-08-26T21:44:56.815Z,69.57
2022-08-26T21:47:24.456Z,70.08
2022-08-26T21:49:51.624Z,69.61
2022-08-26T21:52:18.081Z,68.84
2022-08-26T21:54:49.913Z,68.61
2022-08-26T21:57:25.763Z,68.80
2022-08-26T21:59:52.583Z,68.81
2022-08-26T22:02:19.522Z,68.39
2022-08-26T22:04:48.834Z,68.84
2022-08-26T22:07:22.861Z,68.92
2022-08-26T22:09:50.033Z,69.01
2022-08-26T22:12:18.162Z,71.90
2022-08-26T22:14:45.505Z,71.77
2022-08-26T22:17:18.813Z,71.56
2022-08-26T22:19:45.860Z,72.96
2022-08-26T22:22:32.787Z,73.60
2022-08-26T22:25:02.346Z,74.46
2022-08-26T22:27:28.771Z,74.78
2022-08-26T22:29:55.549Z,75.13
2022-08-26T22:32:23.351Z,75.07
2022-08-26T22:34:49.833Z,74.98
2022-08-26T22:37:16.250Z,76.35
2022-08-26T22:39:42.737Z,76.91
2022-08-26T22:42:09.269Z,77.17
2022-08-26T22:44:36.948Z,77.45
2022-08-26T22:47:03.587Z,78.11
2022-08-26T22:49:30.470Z,77.14
2022-08-26T22:51:56.910Z,77.84
2022-08-26T22:54:25.935Z,78.00
2022-08-26T22:56:58.804Z,78.06
2022-08-26T22:59:25.244Z,77.73
2022-08-26T23:01:51.719Z,78.06
2022-08-26T23:04:18.679Z,78.56
2022-08-26T23:06:47.459Z,78.89
2022-08-26T23:09:17.020Z,79.85
2022-08-26T23:11:50.838Z,80.25
2022-08-26T23:14:20.826Z,80.24
2022-08-26T23:16:56.889Z,80.82
2022-08-26T23:19:23.868Z,79.71
2022-08-26T23:22:14.835Z,81.52
2022-08-26T23:24:41.470Z,81.15
2022-08-26T23:27:07.954Z,81.22
2022-08-26T23:29:35.683Z,80.55
2022-08-26T23:32:05.149Z,81.23
2022-08-26T23:34:50.392Z,81.71
2022-08-26T23:37:20.361Z,81.32
2022-08-26T23:39:48.255Z,81.63
2022-08-26T23:42:16.021Z,80.72
2022-08-26T23:44:44.875Z,82.31
2022-08-26T23:47:11.649Z,82.54
2022-08-26T23:49:38.141Z,84.44
2022-08-26T23:52:24.255Z,84.79
2022-08-26T23:54:52.347Z,85.46
2022-08-26T23:57:23.309Z,87.12
2022-08-26T23:59:53.057Z,86.69
